createdAt,value
2023-02-11T00:55:21.654Z,25.00
2023-02-11T00:56:22.618Z,25.00
2023-02-11T00:57:22.617Z,25.00
2023-02-11T00:58:22.596Z,25.00
2023-02-11T00:59:22.603Z,25.00
2023-02-11T01:00:22.580Z,25.00
2023-02-11T01:01:22.713Z,0.00
2023-02-11T01:02:22.566Z,0.00
2023-02-11T01:03:22.583Z,0.00
2023-02-11T01:04:22.555Z,0.00
2023-02-11T01:05:22.625Z,0.00
2023-02-11T01:06:22.532Z,0.00
2023-02-11T01:07:22.524Z,2.78
2023-02-11T01:08:22.531Z,23.00
2023-02-11T01:09:22.515Z,23.40
2023-02-11T01:10:22.505Z,23.14
2023-02-11T01:11:22.733Z,28.66
2023-02-11T01:12:22.485Z,30.88
2023-02-11T01:13:22.485Z,27.13
2023-02-11T01:14:22.475Z,30.18
2023-02-11T01:15:22.466Z,25.00
2023-02-11T01:16:22.573Z,32.07
2023-02-11T01:17:22.445Z,27.85
2023-02-11T01:18:22.439Z,30.63
2023-02-11T01:19:22.434Z,27.88
2023-02-11T01:20:22.415Z,25.59
2023-02-11T01:21:22.415Z,33.56
2023-02-11T01:22:22.400Z,31.80
2023-02-11T01:23:22.401Z,24.21
2023-02-11T01:24:22.388Z,31.42
2023-02-11T01:25:22.381Z,30.87
2023-02-11T01:26:22.387Z,37.80
2023-02-11T01:27:22.384Z,26.41
2023-02-11T01:28:22.379Z,32.89
2023-02-11T01:29:22.380Z,31.33
2023-02-11T01:30:22.336Z,30.12
2023-02-11T01:31:22.418Z,30.55
2023-02-11T01:32:22.342Z,32.35
2023-02-11T01:33:22.328Z,24.18
2023-02-11T01:34:22.301Z,23.10
2023-02-11T01:35:22.303Z,35.25
2023-02-11T01:36:22.291Z,29.82
2023-02-11T01:37:22.289Z,44.17
2023-02-11T01:38:22.284Z,33.83
2023-02-11T01:39:22.264Z,29.35
2023-02-11T01:40:22.254Z,33.74
2023-02-11T01:41:22.258Z,29.07
2023-02-11T01:42:22.247Z,24.46
2023-02-11T01:43:22.256Z,30.78
2023-02-11T01:44:22.218Z,35.80
2023-02-11T01:45:23.202Z,38.61
2023-02-11T01:46:22.252Z,39.48
2023-02-11T01:47:22.198Z,34.19
2023-02-11T01:48:22.194Z,31.98
2023-02-11T01:49:22.344Z,27.22
2023-02-11T01:50:22.176Z,33.61
2023-02-11T01:51:22.189Z,35.18
2023-02-11T01:52:22.157Z,33.32
2023-02-11T01:53:22.144Z,27.67
2023-02-11T01:54:22.145Z,27.22
2023-02-11T01:55:22.132Z,28.92
2023-02-11T01:56:22.136Z,26.47
2023-02-11T01:57:22.143Z,35.20
2023-02-11T01:58:22.101Z,26.52
2023-02-11T01:59:22.122Z,34.73
2023-02-11T02:00:22.103Z,32.69
2023-02-11T02:01:22.176Z,32.08
2023-02-11T02:02:22.084Z,30.88
2023-02-11T02:03:22.127Z,33.38
2023-02-11T02:04:22.051Z,37.19
2023-02-11T02:05:22.058Z,28.39
2023-02-11T02:06:22.059Z,31.82
2023-02-11T02:07:22.037Z,29.57
2023-02-11T02:08:22.022Z,34.15
2023-02-11T02:09:22.037Z,25.48
2023-02-11T02:10:22.010Z,30.87
2023-02-11T02:11:22.007Z,36.25
2023-02-11T02:12:21.986Z,27.34
2023-02-11T02:13:21.977Z,29.67
2023-02-11T02:14:21.983Z,26.44
2023-02-11T02:15:21.991Z,29.89
2023-02-11T02:16:21.979Z,35.03
2023-02-11T02:17:21.953Z,30.97
2023-02-11T02:18:21.948Z,29.00
2023-02-11T02:19:21.921Z,34.32
2023-02-11T02:20:22.526Z,30.25
2023-02-11T02:21:21.910Z,30.59
2023-02-11T02:22:21.901Z,32.80
2023-02-11T02:23:21.908Z,30.97
2023-02-11T02:24:21.883Z,33.33
2023-02-11T02:25:21.879Z,32.23
2023-02-11T02:26:21.859Z,27.48
2023-02-11T02:27:21.867Z,35.45
2023-02-11T02:28:21.924Z,38.81
2023-02-11T02:29:21.842Z,32.24
2023-02-11T02:30:21.883Z,34.16
2023-02-11T02:31:21.923Z,32.90
2023-02-11T02:32:21.822Z,34.21
2023-02-11T02:33:22.797Z,33.53
2023-02-11T02:34:21.788Z,35.27
2023-02-11T02:35:21.789Z,37.43
2023-02-11T02:36:21.774Z,32.86
2023-02-11T02:37:21.772Z,29.92
2023-02-11T02:38:21.777Z,25.68
2023-02-11T02:39:21.759Z,37.59
2023-02-11T02:40:21.745Z,26.20
2023-02-11T02:41:21.745Z,33.78
2023-02-11T02:42:21.739Z,27.91
2023-02-11T02:43:21.731Z,27.71
2023-02-11T02:44:21.715Z,31.16
2023-02-11T02:45:21.726Z,32.38
2023-02-11T02:46:21.805Z,28.74
2023-02-11T02:47:21.711Z,29.50
2023-02-11T02:48:21.681Z,34.66
2023-02-11T02:49:21.668Z,33.29
2023-02-11T02:50:21.667Z,32.24
2023-02-11T02:51:22.248Z,33.16
2023-02-11T02:52:21.645Z,33.42
2023-02-11T02:53:21.645Z,33.72
2023-02-11T02:54:21.640Z,35.37
2023-02-11T02:55:21.626Z,30.64
2023-02-11T02:56:21.607Z,28.34
2023-02-11T02:57:21.601Z,30.91
2023-02-11T02:58:21.593Z,35.01
2023-02-11T02:59:21.588Z,36.18
2023-02-11T03:00:21.587Z,33.51
2023-02-11T03:01:21.562Z,39.59
2023-02-11T03:02:21.556Z,27.55
2023-02-11T03:03:21.613Z,32.20
2023-02-11T03:04:21.560Z,25.30
2023-02-11T03:05:21.532Z,35.60
2023-02-11T03:06:21.529Z,36.05
2023-02-11T03:07:21.518Z,34.47
2023-02-11T03:08:21.516Z,36.52
2023-02-11T03:09:21.492Z,26.02
2023-02-11T03:10:21.482Z,35.66
2023-02-11T03:11:21.495Z,31.72
2023-02-11T03:12:21.478Z,34.54
2023-02-11T03:13:21.476Z,30.04
2023-02-11T03:14:21.464Z,29.36
2023-02-11T03:15:21.473Z,32.58
2023-02-11T03:16:21.594Z,33.31
2023-02-11T03:17:21.424Z,30.28
2023-02-11T03:18:21.418Z,30.69
2023-02-11T03:19:21.440Z,26.36
2023-02-11T03:20:21.422Z,35.04
2023-02-11T03:21:21.400Z,38.26
2023-02-11T03:22:21.406Z,31.16
2023-02-11T03:23:21.372Z,35.39
2023-02-11T03:24:21.369Z,33.65
2023-02-11T03:25:21.361Z,32.02
2023-02-11T03:26:21.353Z,33.40
2023-02-11T03:27:21.348Z,25.60
2023-02-11T03:28:21.400Z,33.77
2023-02-11T03:29:21.331Z,30.20
2023-02-11T03:30:21.323Z,31.74
2023-02-11T03:31:21.417Z,34.41
2023-02-11T03:32:21.304Z,36.93
2023-02-11T03:33:21.295Z,27.96
2023-02-11T03:34:21.286Z,37.73
2023-02-11T03:35:21.311Z,32.16
2023-02-11T03:36:21.269Z,29.58
2023-02-11T03:37:21.262Z,33.79
2023-02-11T03:38:21.251Z,28.19
2023-02-11T03:39:21.239Z,34.09
2023-02-11T03:40:21.236Z,32.82
2023-02-11T03:41:21.226Z,26.36
2023-02-11T03:42:21.219Z,38.08
2023-02-11T03:43:21.207Z,36.46
2023-02-11T03:44:21.204Z,40.34
2023-02-11T03:45:21.191Z,31.07
2023-02-11T03:46:21.235Z,31.58
2023-02-11T03:47:21.173Z,37.66
2023-02-11T03:48:21.168Z,35.35
2023-02-11T03:49:21.155Z,36.32
2023-02-11T03:50:21.151Z,32.25
2023-02-11T03:51:21.173Z,35.17
2023-02-11T03:52:21.134Z,28.22
2023-02-11T03:53:21.123Z,35.04
2023-02-11T03:54:21.113Z,33.05
2023-02-11T03:55:21.111Z,39.55
2023-02-11T03:56:21.099Z,36.59
2023-02-11T03:57:21.096Z,38.21
2023-02-11T03:58:21.089Z,30.53
2023-02-11T03:59:21.069Z,33.83
2023-02-11T04:00:21.064Z,32.51
2023-02-11T04:01:21.086Z,25.17
2023-02-11T04:02:21.046Z,38.82
2023-02-11T04:03:21.069Z,38.29
2023-02-11T04:04:21.032Z,31.90
2023-02-11T04:05:21.034Z,31.03
2023-02-11T04:06:21.023Z,36.20
2023-02-11T04:07:21.031Z,34.36
2023-02-11T04:08:20.997Z,33.20
2023-02-11T04:09:20.984Z,31.95
2023-02-11T04:10:20.978Z,30.23
2023-02-11T04:11:20.973Z,34.93
2023-02-11T04:12:20.976Z,36.09
2023-02-11T04:13:20.956Z,29.12
2023-02-11T04:14:20.995Z,35.20
2023-02-11T04:15:20.947Z,32.87
2023-02-11T04:16:20.979Z,26.66
2023-02-11T04:17:20.927Z,33.01
2023-02-11T04:18:20.920Z,35.86
2023-02-11T04:19:20.902Z,40.41
2023-02-11T04:20:20.895Z,34.51
2023-02-11T04:21:20.889Z,34.65
2023-02-11T04:22:20.881Z,39.78
2023-02-11T04:23:20.902Z,34.19
2023-02-11T04:24:20.859Z,33.65
2023-02-11T04:25:20.851Z,37.21
2023-02-11T04:26:20.847Z,40.32
2023-02-11T04:27:20.841Z,34.41
2023-02-11T04:28:20.891Z,39.17
2023-02-11T04:29:20.824Z,29.31
2023-02-11T04:30:20.807Z,39.63
2023-02-11T04:31:20.949Z,36.68
2023-02-11T04:32:20.801Z,39.90
2023-02-11T04:33:20.802Z,32.13
2023-02-11T04:34:20.786Z,32.45
2023-02-11T04:35:20.776Z,36.84
2023-02-11T04:36:20.765Z,37.92
2023-02-11T04:37:20.754Z,43.31
2023-02-11T04:38:20.748Z,29.26
2023-02-11T04:39:20.772Z,38.84
2023-02-11T04:40:20.735Z,34.33
2023-02-11T04:41:20.724Z,35.80
2023-02-11T04:42:20.727Z,31.42
2023-02-11T04:43:20.711Z,37.32
2023-02-11T04:44:20.697Z,31.89
2023-02-11T04:45:20.693Z,39.58
2023-02-11T04:46:20.784Z,37.70
2023-02-11T04:47:20.673Z,38.94
2023-02-11T04:48:20.662Z,38.73
2023-02-11T04:49:20.653Z,33.71
2023-02-11T04:50:20.656Z,33.83
2023-02-11T04:51:20.638Z,29.14
2023-02-11T04:52:20.630Z,32.51
2023-02-11T04:53:20.617Z,31.98
2023-02-11T04:54:20.607Z,34.41
2023-02-11T04:55:20.632Z,39.18
2023-02-11T04:56:20.597Z,34.12
2023-02-11T04:57:20.593Z,33.70
2023-02-11T04:58:20.583Z,38.10
2023-02-11T04:59:20.569Z,34.13
2023-02-11T05:00:20.570Z,29.52
2023-02-11T05:01:20.633Z,32.22
2023-02-11T05:02:20.550Z,35.58
2023-02-11T05:03:20.558Z,36.54
2023-02-11T05:04:20.592Z,31.03
2023-02-11T05:05:20.520Z,36.03
2023-02-11T05:06:20.514Z,37.25
2023-02-11T05:07:20.510Z,32.90
2023-02-11T05:08:20.492Z,34.99
2023-02-11T05:09:20.483Z,34.69
2023-02-11T05:10:20.476Z,33.15
2023-02-11T05:11:20.497Z,33.41
2023-02-11T05:12:20.468Z,30.73
2023-02-11T05:13:20.457Z,34.05
2023-02-11T05:14:20.453Z,25.03
2023-02-11T05:15:20.451Z,30.86
2023-02-11T05:16:20.472Z,34.11
2023-02-11T05:17:20.427Z,33.50
2023-02-11T05:18:20.426Z,36.26
2023-02-11T05:19:20.406Z,37.70
2023-02-11T05:20:20.401Z,36.56
2023-02-11T05:21:20.390Z,33.08
2023-02-11T05:22:20.376Z,31.18
2023-02-11T05:23:20.370Z,37.13
2023-02-11T05:24:20.360Z,33.71
2023-02-11T05:25:20.359Z,33.55
2023-02-11T05:26:20.347Z,40.74
2023-02-11T05:27:20.360Z,31.46
2023-02-11T05:28:20.437Z,32.31
2023-02-11T05:29:20.322Z,37.99
2023-02-11T05:30:20.310Z,38.86
2023-02-11T05:31:20.304Z,38.60
2023-02-11T05:32:20.302Z,32.34
2023-02-11T05:33:20.281Z,30.89
2023-02-11T05:34:20.280Z,29.13
2023-02-11T05:35:20.282Z,29.91
2023-02-11T05:36:20.261Z,34.29
2023-02-11T05:37:20.331Z,30.50
2023-02-11T05:38:20.242Z,35.17
2023-02-11T05:39:20.240Z,32.36
2023-02-11T05:40:20.232Z,34.58
2023-02-11T05:41:20.214Z,32.01
2023-02-11T05:42:20.209Z,36.86
2023-02-11T05:43:20.227Z,34.27
2023-02-11T05:44:20.193Z,33.66
2023-02-11T05:45:20.854Z,39.00
2023-02-11T05:46:20.195Z,37.87
2023-02-11T05:47:20.169Z,43.26
2023-02-11T05:48:20.168Z,27.31
2023-02-11T05:49:20.157Z,39.40
2023-02-11T05:50:20.140Z,35.31
2023-02-11T05:51:20.145Z,30.62
2023-02-11T05:52:20.128Z,36.20
2023-02-11T05:53:20.120Z,32.64
2023-02-11T05:54:20.110Z,36.04
2023-02-11T05:55:20.114Z,30.31
2023-02-11T05:56:20.098Z,30.05
2023-02-11T05:57:20.085Z,34.73
2023-02-11T05:58:20.074Z,32.23
2023-02-11T05:59:20.099Z,36.22
2023-02-11T06:00:20.061Z,32.64
2023-02-11T06:01:20.054Z,31.50
2023-02-11T06:02:20.106Z,29.17
2023-02-11T06:03:20.066Z,33.56
2023-02-11T06:04:20.029Z,35.63
2023-02-11T06:05:20.015Z,37.09
2023-02-11T06:07:20.006Z,32.33
2023-02-11T06:08:20.000Z,33.05
2023-02-11T06:09:19.988Z,32.77
2023-02-11T06:10:19.972Z,34.71
2023-02-11T06:11:19.962Z,42.25
2023-02-11T06:12:19.960Z,34.45
2023-02-11T06:13:19.961Z,36.07
2023-02-11T06:14:19.939Z,38.90
2023-02-11T06:15:19.966Z,33.92
2023-02-11T06:16:19.976Z,35.97
2023-02-11T06:17:19.927Z,38.00
2023-02-11T06:18:19.911Z,36.35
2023-02-11T06:19:19.931Z,31.12
2023-02-11T06:20:19.893Z,36.82
2023-02-11T06:21:19.886Z,31.33
2023-02-11T06:22:19.880Z,35.52
2023-02-11T06:23:19.874Z,39.74
2023-02-11T06:24:38.393Z,30.62
2023-02-11T06:25:19.850Z,31.29
2023-02-11T06:26:19.840Z,31.51
2023-02-11T06:27:19.834Z,33.32
2023-02-11T06:28:19.901Z,38.31
2023-02-11T06:29:19.824Z,44.06
2023-02-11T06:30:19.837Z,39.13
2023-02-11T06:31:19.911Z,38.44
2023-02-11T06:32:39.541Z,38.71
2023-02-11T06:33:19.785Z,38.96
2023-02-11T06:34:19.779Z,39.53
2023-02-11T06:35:19.787Z,41.30
2023-02-11T06:36:19.765Z,36.51
2023-02-11T06:37:19.753Z,38.13
2023-02-11T06:38:19.752Z,40.88
2023-02-11T06:39:19.734Z,41.23
2023-02-11T06:40:19.730Z,37.59
2023-02-11T06:41:19.717Z,36.77
2023-02-11T06:42:19.715Z,39.56
2023-02-11T06:43:19.714Z,32.55
2023-02-11T06:44:19.693Z,38.47
2023-02-11T06:45:19.685Z,35.31
2023-02-11T06:46:19.717Z,42.87
2023-02-11T06:47:19.701Z,34.54
2023-02-11T06:48:19.665Z,35.70
2023-02-11T06:49:19.650Z,34.73
2023-02-11T06:50:19.644Z,30.22
2023-02-11T06:51:19.643Z,33.48
2023-02-11T06:52:19.630Z,31.84
2023-02-11T06:53:19.620Z,38.99
2023-02-11T06:54:19.609Z,32.28
2023-02-11T06:55:19.598Z,37.26
2023-02-11T06:56:19.594Z,38.40
2023-02-11T06:57:19.598Z,40.30
2023-02-11T06:58:19.595Z,37.78
2023-02-11T06:59:19.578Z,36.57
2023-02-11T07:00:19.563Z,39.95
2023-02-11T07:01:19.564Z,34.65
2023-02-11T07:02:20.989Z,30.41
2023-02-11T07:03:19.832Z,30.65
2023-02-11T07:04:19.728Z,31.68
2023-02-11T07:05:19.714Z,31.57
2023-02-11T07:06:19.705Z,33.15
2023-02-11T07:07:19.700Z,34.96
2023-02-11T07:08:19.707Z,37.17
2023-02-11T07:09:19.685Z,34.78
2023-02-11T07:10:19.684Z,28.10
2023-02-11T07:11:19.682Z,36.61
2023-02-11T07:12:19.666Z,36.49
2023-02-11T07:13:19.660Z,34.74
2023-02-11T07:14:19.652Z,34.37
2023-02-11T07:15:19.632Z,33.42
2023-02-11T07:16:19.713Z,35.27
2023-02-11T07:17:19.617Z,35.58
2023-02-11T07:18:19.614Z,35.18
2023-02-11T07:19:20.019Z,37.43
2023-02-11T07:20:19.585Z,33.09
2023-02-11T07:21:19.597Z,32.23
2023-02-11T07:22:19.605Z,39.15
2023-02-11T07:23:19.558Z,33.54
2023-02-11T07:24:19.562Z,34.15
2023-02-11T07:25:19.562Z,40.89
2023-02-11T07:26:19.556Z,35.14
2023-02-11T07:27:19.526Z,36.63
2023-02-11T07:28:19.592Z,33.95
2023-02-11T07:29:19.515Z,36.88
2023-02-11T07:30:19.512Z,40.31
2023-02-11T07:31:19.707Z,40.24
2023-02-11T07:32:19.578Z,34.18
2023-02-11T07:33:19.474Z,37.07
2023-02-11T07:34:19.522Z,38.32
2023-02-11T07:35:19.499Z,40.09
2023-02-11T07:36:19.452Z,40.88
2023-02-11T07:37:19.440Z,31.69
2023-02-11T07:38:19.431Z,39.74
2023-02-11T07:39:19.434Z,40.02
2023-02-11T07:40:19.417Z,41.40
2023-02-11T07:41:19.414Z,36.32
2023-02-11T07:42:19.402Z,39.89
2023-02-11T07:43:19.399Z,39.39
2023-02-11T07:44:19.381Z,36.44
2023-02-11T07:45:19.373Z,44.41
2023-02-11T07:46:19.426Z,41.70
2023-02-11T07:47:19.360Z,41.63
2023-02-11T07:48:19.347Z,34.27
2023-02-11T07:49:19.351Z,35.33
2023-02-11T07:50:19.342Z,41.77
2023-02-11T07:51:19.353Z,41.06
2023-02-11T07:52:19.315Z,39.97
2023-02-11T07:53:19.303Z,29.71
2023-02-11T07:54:19.325Z,41.19
2023-02-11T07:55:19.289Z,35.25
2023-02-11T07:56:19.294Z,35.88
2023-02-11T07:57:19.283Z,32.26
2023-02-11T07:58:19.265Z,33.40
2023-02-11T07:59:19.259Z,33.40
2023-02-11T08:00:21.089Z,39.29
2023-02-11T08:01:19.333Z,44.88
2023-02-11T08:02:19.262Z,46.65
2023-02-11T08:03:19.229Z,35.07
2023-02-11T08:04:19.245Z,47.17
2023-02-11T08:05:19.209Z,37.46
2023-02-11T08:06:19.206Z,39.48
2023-02-11T08:07:19.231Z,37.18
2023-02-11T08:08:19.184Z,42.94
2023-02-11T08:09:19.884Z,44.50
2023-02-11T08:10:19.168Z,43.84
2023-02-11T08:11:19.886Z,37.70
2023-02-11T08:12:19.152Z,45.07
2023-02-11T08:13:19.159Z,37.46
2023-02-11T08:14:19.142Z,43.57
2023-02-11T08:15:19.120Z,43.45
2023-02-11T08:16:19.127Z,44.25
2023-02-11T08:17:19.118Z,38.81
2023-02-11T08:18:19.095Z,35.11
2023-02-11T08:19:19.098Z,41.02
2023-02-11T08:20:19.087Z,44.79
2023-02-11T08:21:19.079Z,39.52
2023-02-11T08:22:19.059Z,41.99
2023-02-11T08:23:19.078Z,35.67
2023-02-11T08:24:19.051Z,37.23
2023-02-11T08:25:19.043Z,42.83
2023-02-11T08:26:19.027Z,42.55
2023-02-11T08:27:19.022Z,36.92
2023-02-11T08:28:19.057Z,38.70
2023-02-11T08:29:19.001Z,38.49
2023-02-11T08:30:19.001Z,36.27
2023-02-11T08:31:19.196Z,38.80
2023-02-11T08:32:19.048Z,40.91
2023-02-11T08:33:18.969Z,38.11
2023-02-11T08:34:18.998Z,38.59
2023-02-11T08:35:18.962Z,44.45
2023-02-11T08:36:18.960Z,44.53
2023-02-11T08:37:18.940Z,41.77
2023-02-11T08:38:18.933Z,41.60
2023-02-11T08:39:20.477Z,41.65
2023-02-11T08:40:18.912Z,43.95
2023-02-11T08:41:18.908Z,45.45
2023-02-11T08:42:18.893Z,41.29
2023-02-11T08:43:18.889Z,46.68
2023-02-11T08:44:18.889Z,34.20
2023-02-11T08:45:19.390Z,38.96
2023-02-11T08:46:18.905Z,47.08
2023-02-11T08:47:18.870Z,41.46
2023-02-11T08:48:18.849Z,39.76
2023-02-11T08:49:18.845Z,34.52
2023-02-11T08:50:18.830Z,37.10
2023-02-11T08:51:18.819Z,39.63
2023-02-11T08:52:18.813Z,44.83
2023-02-11T08:53:18.800Z,40.69
2023-02-11T08:54:18.792Z,44.67
2023-02-11T08:55:18.811Z,47.57
2023-02-11T08:56:18.795Z,39.08
2023-02-11T08:57:18.769Z,37.92
2023-02-11T08:58:19.239Z,40.55
2023-02-11T08:59:18.747Z,41.44
2023-02-11T09:00:18.762Z,41.95
2023-02-11T09:01:20.588Z,43.36
2023-02-11T09:02:18.801Z,43.39
2023-02-11T09:03:18.730Z,43.72
2023-02-11T09:04:18.745Z,45.30
2023-02-11T09:05:18.701Z,47.01
2023-02-11T09:06:18.753Z,42.65
2023-02-11T09:07:18.680Z,46.58
2023-02-11T09:08:18.688Z,45.79
2023-02-11T09:09:18.672Z,45.26
2023-02-11T09:10:18.662Z,43.10
2023-02-11T09:11:18.676Z,44.88
2023-02-11T09:12:18.650Z,36.89
2023-02-11T09:13:18.630Z,48.93
2023-02-11T09:14:18.637Z,41.82
2023-02-11T09:15:18.619Z,45.70
2023-02-11T09:16:18.685Z,37.82
2023-02-11T09:17:18.599Z,47.29
2023-02-11T09:18:18.592Z,44.12
2023-02-11T09:19:18.591Z,37.97
2023-02-11T09:20:18.573Z,39.80
2023-02-11T09:21:18.583Z,45.18
2023-02-11T09:22:18.560Z,37.92
2023-02-11T09:23:18.690Z,39.14
2023-02-11T09:24:18.584Z,41.80
2023-02-11T09:25:18.542Z,47.32
2023-02-11T09:26:18.520Z,43.73
2023-02-11T09:27:18.545Z,48.66
2023-02-11T09:28:18.586Z,39.74
2023-02-11T09:29:18.499Z,44.85
2023-02-11T09:30:18.495Z,46.82
2023-02-11T09:31:18.650Z,43.56
2023-02-11T09:32:18.586Z,39.29
2023-02-11T09:33:18.462Z,45.24
2023-02-11T09:34:18.455Z,48.10
2023-02-11T09:35:18.450Z,44.16
2023-02-11T09:36:18.441Z,40.39
2023-02-11T09:37:18.435Z,43.78
2023-02-11T09:38:18.427Z,39.41
2023-02-11T09:39:18.472Z,47.36
2023-02-11T09:40:18.408Z,42.25
2023-02-11T09:41:18.399Z,38.08
2023-02-11T09:42:18.391Z,43.26
2023-02-11T09:43:18.408Z,41.59
2023-02-11T09:44:18.374Z,43.31
2023-02-11T09:45:18.367Z,39.90
2023-02-11T09:46:18.377Z,38.33
2023-02-11T09:47:18.352Z,41.95
2023-02-11T09:48:18.342Z,47.20
2023-02-11T09:49:18.332Z,48.59
2023-02-11T09:50:18.327Z,39.99
2023-02-11T09:51:18.311Z,39.27
2023-02-11T09:52:18.304Z,47.32
2023-02-11T09:53:18.302Z,40.47
2023-02-11T09:54:18.302Z,43.41
2023-02-11T09:55:18.283Z,43.74
2023-02-11T09:56:18.269Z,41.73
2023-02-11T09:57:28.201Z,43.74
2023-02-11T09:58:18.260Z,44.02
2023-02-11T09:59:18.270Z,44.78
2023-02-11T10:00:18.237Z,44.19
2023-02-11T10:01:20.929Z,40.19
2023-02-11T10:02:18.221Z,44.13
2023-02-11T10:03:18.211Z,44.45
2023-02-11T10:04:18.245Z,44.44
2023-02-11T10:05:18.203Z,44.58
2023-02-11T10:06:18.187Z,50.67
2023-02-11T10:07:18.186Z,44.80
2023-02-11T10:08:18.177Z,50.78
2023-02-11T10:09:18.933Z,51.49
2023-02-11T10:10:18.158Z,49.50
2023-02-11T10:11:30.972Z,44.20
2023-02-11T10:12:18.142Z,44.53
2023-02-11T10:13:18.127Z,45.42
2023-02-11T10:14:18.125Z,45.04
2023-02-11T10:15:18.149Z,46.78
2023-02-11T10:16:18.173Z,43.28
2023-02-11T10:17:18.100Z,45.86
2023-02-11T10:18:18.084Z,46.77
2023-02-11T10:19:18.077Z,45.66
2023-02-11T10:20:18.088Z,48.36
2023-02-11T10:21:18.062Z,44.49
2023-02-11T10:22:18.062Z,45.72
2023-02-11T10:23:18.058Z,44.01
2023-02-11T10:24:18.040Z,46.69
2023-02-11T10:25:18.029Z,47.13
2023-02-11T10:26:18.025Z,40.05
2023-02-11T10:27:18.016Z,42.48
2023-02-11T10:28:18.146Z,49.16
2023-02-11T10:29:17.996Z,48.26
2023-02-11T10:30:17.983Z,37.34
2023-02-11T10:31:18.265Z,45.58
2023-02-11T10:32:17.969Z,44.21
2023-02-11T10:33:17.955Z,43.13
2023-02-11T10:34:17.950Z,49.42
2023-02-11T10:35:17.958Z,49.00
2023-02-11T10:36:17.927Z,48.01
2023-02-11T10:37:17.924Z,40.74
2023-02-11T10:38:17.914Z,44.24
2023-02-11T10:39:17.902Z,45.76
2023-02-11T10:40:17.912Z,42.59
2023-02-11T10:41:17.891Z,43.79
2023-02-11T10:42:17.886Z,46.63
2023-02-11T10:43:17.867Z,49.31
2023-02-11T10:44:17.867Z,41.20
2023-02-11T10:45:17.851Z,39.05
2023-02-11T10:46:17.890Z,45.05
2023-02-11T10:47:17.867Z,47.41
2023-02-11T10:48:17.827Z,50.92
2023-02-11T10:49:17.817Z,44.44
2023-02-11T10:50:17.818Z,44.58
2023-02-11T10:51:17.799Z,36.98
2023-02-11T10:52:17.805Z,43.55
2023-02-11T10:53:17.789Z,43.80
2023-02-11T10:54:17.774Z,43.34
2023-02-11T10:55:17.778Z,45.40
2023-02-11T10:56:17.756Z,45.15
2023-02-11T10:57:17.747Z,35.71
2023-02-11T10:58:17.749Z,49.95
2023-02-11T10:59:19.772Z,39.73
2023-02-11T11:00:17.839Z,40.08
2023-02-11T11:01:24.226Z,41.46
2023-02-11T11:02:17.708Z,40.23
2023-02-11T11:03:17.732Z,41.09
2023-02-11T11:04:17.789Z,41.62
2023-02-11T11:05:17.688Z,44.29
2023-02-11T11:06:17.671Z,47.53
2023-02-11T11:07:17.701Z,48.61
2023-02-11T11:08:17.657Z,46.96
2023-02-11T11:09:17.643Z,46.92
2023-02-11T11:10:17.750Z,40.12
2023-02-11T11:11:17.624Z,46.91
2023-02-11T11:12:17.633Z,44.72
2023-02-11T11:13:17.634Z,43.29
2023-02-11T11:14:17.625Z,43.18
2023-02-11T11:15:17.594Z,46.88
2023-02-11T11:16:17.663Z,46.46
2023-02-11T11:17:17.572Z,41.70
2023-02-11T11:18:22.842Z,45.65
2023-02-11T11:19:18.487Z,46.01
2023-02-11T11:20:17.555Z,47.77
2023-02-11T11:21:17.545Z,47.42
2023-02-11T11:22:17.533Z,47.56
2023-02-11T11:23:17.525Z,47.61
2023-02-11T11:24:17.510Z,47.08
2023-02-11T11:25:18.469Z,45.29
2023-02-11T11:26:17.496Z,44.47
2023-02-11T11:27:17.489Z,48.09
2023-02-11T11:28:17.557Z,48.73
2023-02-11T11:29:17.472Z,46.63
2023-02-11T11:30:17.471Z,44.41
2023-02-11T11:31:17.600Z,47.26
2023-02-11T11:32:19.567Z,43.16
2023-02-11T11:33:17.439Z,43.38
2023-02-11T11:34:17.428Z,43.57
2023-02-11T11:35:17.442Z,41.06
2023-02-11T11:36:17.406Z,45.26
2023-02-11T11:37:17.407Z,46.75
2023-02-11T11:38:17.472Z,49.80
2023-02-11T11:39:17.967Z,40.32
2023-02-11T11:40:17.384Z,48.29
2023-02-11T11:41:17.361Z,45.52
2023-02-11T11:42:17.347Z,50.16
2023-02-11T11:43:17.360Z,43.43
2023-02-11T11:44:17.346Z,46.87
2023-02-11T11:45:17.318Z,40.29
2023-02-11T11:46:17.378Z,45.43
2023-02-11T11:47:17.306Z,48.64
2023-02-11T11:48:17.298Z,48.21
2023-02-11T11:49:17.290Z,43.04
2023-02-11T11:50:19.006Z,45.99
2023-02-11T11:51:17.318Z,46.16
2023-02-11T11:52:17.265Z,42.92
2023-02-11T11:53:17.246Z,45.91
2023-02-11T11:55:17.232Z,46.10
2023-02-11T11:56:17.225Z,43.90
2023-02-11T11:57:17.217Z,46.94
2023-02-11T11:58:17.281Z,42.32
2023-02-11T11:59:17.221Z,41.07
2023-02-11T12:00:17.197Z,43.81
2023-02-11T12:01:17.178Z,49.67
2023-02-11T12:02:17.234Z,40.58
2023-02-11T12:03:17.233Z,46.42
2023-02-11T12:04:17.160Z,44.24
2023-02-11T12:05:17.150Z,50.86
2023-02-11T12:06:17.144Z,43.73
2023-02-11T12:07:17.147Z,49.38
2023-02-11T12:08:17.115Z,40.82
2023-02-11T12:09:17.108Z,42.63
2023-02-11T12:10:17.103Z,47.82
2023-02-11T12:11:17.086Z,47.26
2023-02-11T12:12:17.080Z,41.99
2023-02-11T12:13:17.983Z,47.86
2023-02-11T12:14:17.086Z,43.40
2023-02-11T12:15:17.049Z,41.70
2023-02-11T12:16:17.071Z,42.80
2023-02-11T12:17:17.034Z,42.15
2023-02-11T12:18:17.024Z,43.11
2023-02-11T12:19:17.013Z,38.22
2023-02-11T12:20:17.018Z,40.10
2023-02-11T12:21:17.010Z,43.11
2023-02-11T12:22:16.997Z,44.07
2023-02-11T12:23:17.031Z,43.62
2023-02-11T12:24:17.461Z,39.76
2023-02-11T12:25:16.959Z,50.01
2023-02-11T12:26:16.950Z,47.03
2023-02-11T12:27:16.951Z,40.09
2023-02-11T12:28:16.976Z,38.15
2023-02-11T12:29:16.919Z,38.03
2023-02-11T12:30:16.920Z,41.46
2023-02-11T12:31:17.121Z,50.47
2023-02-11T12:32:16.924Z,44.71
2023-02-11T12:33:16.882Z,35.58
2023-02-11T12:34:16.880Z,39.49
2023-02-11T12:35:16.872Z,39.91
2023-02-11T12:36:16.864Z,42.33
2023-02-11T12:37:16.842Z,45.26
2023-02-11T12:38:16.846Z,51.46
2023-02-11T12:39:17.536Z,50.25
2023-02-11T12:40:16.834Z,39.26
2023-02-11T12:41:16.813Z,43.06
2023-02-11T12:42:16.801Z,40.97
2023-02-11T12:43:16.799Z,45.22
2023-02-11T12:44:16.790Z,42.99
2023-02-11T12:45:16.789Z,40.18
2023-02-11T12:46:16.845Z,43.33
2023-02-11T12:47:16.754Z,44.63
2023-02-11T12:48:16.752Z,39.20
2023-02-11T12:49:16.770Z,45.47
2023-02-11T12:50:16.738Z,49.12
2023-02-11T12:51:16.731Z,43.70
2023-02-11T12:52:16.707Z,39.60
2023-02-11T12:53:16.732Z,37.26
2023-02-11T12:54:16.711Z,44.76
2023-02-11T12:55:16.718Z,40.63
2023-02-11T12:56:16.690Z,43.18
2023-02-11T12:57:16.666Z,40.18
2023-02-11T12:58:16.658Z,45.91
2023-02-11T12:59:16.652Z,44.31
2023-02-11T13:00:16.639Z,40.98
2023-02-11T13:01:16.733Z,42.36
2023-02-11T13:02:16.693Z,47.19
2023-02-11T13:03:16.612Z,41.53
2023-02-11T13:04:16.617Z,44.81
2023-02-11T13:05:16.593Z,46.02
2023-02-11T13:06:16.607Z,39.25
2023-02-11T13:07:16.570Z,50.64
2023-02-11T13:08:16.577Z,47.22
2023-02-11T13:09:16.556Z,46.61
2023-02-11T13:10:16.545Z,42.37
2023-02-11T13:11:16.575Z,42.33
2023-02-11T13:12:16.528Z,44.24
2023-02-11T13:13:16.517Z,45.06
2023-02-11T13:14:16.520Z,45.03
2023-02-11T13:15:16.502Z,38.21
2023-02-11T13:16:16.531Z,50.84
2023-02-11T13:17:16.500Z,40.00
2023-02-11T13:18:19.032Z,46.67
2023-02-11T13:19:16.464Z,46.85
2023-02-11T13:21:16.540Z,46.92
2023-02-11T13:22:16.446Z,45.51
2023-02-11T13:23:16.432Z,42.23
2023-02-11T13:24:16.425Z,47.42
2023-02-11T13:25:16.413Z,40.84
2023-02-11T13:26:16.398Z,40.13
2023-02-11T13:27:16.430Z,41.17
2023-02-11T13:28:16.424Z,39.73
2023-02-11T13:29:16.376Z,42.72
2023-02-11T13:30:16.363Z,42.16
2023-02-11T13:31:16.590Z,43.77
2023-02-11T13:32:16.347Z,36.64
2023-02-11T13:33:16.343Z,41.42
2023-02-11T13:34:16.329Z,45.19
2023-02-11T13:35:16.323Z,43.93
2023-02-11T13:36:16.309Z,43.72
2023-02-11T13:37:16.300Z,40.35
2023-02-11T13:38:16.290Z,47.86
2023-02-11T13:39:16.335Z,39.61
2023-02-11T13:40:16.281Z,44.46
2023-02-11T13:41:16.263Z,42.60
2023-02-11T13:42:16.252Z,47.61
2023-02-11T13:43:16.267Z,43.44
2023-02-11T13:44:16.239Z,40.95
2023-02-11T13:45:16.237Z,49.14
2023-02-11T13:46:16.303Z,39.53
2023-02-11T13:47:16.210Z,40.82
2023-02-11T13:48:16.241Z,42.83
2023-02-11T13:49:16.196Z,47.51
2023-02-11T13:50:16.192Z,34.13